EBBR

Brussels Airport

Brussels, Belgium
METAR EBBR 250820Z 27013KT 9999 SCT020 BKN045 12/07 Q1012 NOSIG
Observed Flight Rules
Apr-25 @ 08:20 UTC (23 minutes ago) Visual Flight Rules
Wind Visibility Clouds
270° at 13 knots 10,000+ meters
  • Scattered at 2,000' AGL
  • Broken at 4,500' AGL
Temperatures Readings
Current 12°C / 54°F
Dewpoint 7°C / 45°F
Humidity 72%
Altimeter 29.88" Hg
Pressure 1012 hPa
Elevation 58
METAR EBBR 250820Z 27013KT 9999 SCT020 BKN045 12/07 Q1012 NOSIG
Observed Flight Rules
Apr-25 @ 08:20 UTC
(23 minutes ago)
VFR
Wind Visibility
270° at 13 knots 10,000+ meters
Clouds
  • Scattered at 2,000' AGL
  • Broken at 4,500' AGL
Temperature Dewpoint
12°C / 54°F 7°C / 45°F
Humidity Altimeter Pressure
72% 29.88" Hg 1012 hPa